Flight Track Log - Related Links

Times and Time Zones

All times are in EDT time to prevent confusion due to time zone crossing. See the N662US flight status page for this flight to view local times or setup timezone preferences in your user account.

Time Position Orientation Groundspeed Altitude Reporting Facility
EDT Latitude Longitude Course Direction KTS MPH feet Rate Location/Type
Mon 08:17:00 PM 14.6055 121.0916 36° Northeast  Level Estimated
Mon 08:18:00 PM 14.7023 121.1636 36° Northeast  Level Estimated
Mon 08:19:00 PM 14.7991 121.2358 36° Northeast  Level Estimated
Mon 08:20:00 PM 14.8959 121.3080 36° Northeast  Level Estimated
Mon 08:21:00 PM 14.9926 121.3802 36° Northeast  Level Estimated
Mon 08:22:00 PM 15.0893 121.4525 36° Northeast  Level Estimated
Mon 08:23:00 PM 15.1861 121.5249 36° Northeast  Level Estimated
Mon 08:24:00 PM 15.2827 121.5974 36° Northeast  Level Estimated
Mon 08:25:00 PM 15.3794 121.6699 36° Northeast  Level Estimated
Mon 08:26:00 PM 15.4760 121.7425 36° Northeast  Level Estimated
Mon 08:27:00 PM 15.5726 121.8151 36° Northeast  Level Estimated
Mon 08:28:00 PM 15.6745 121.8919 36° Northeast  Level Estimated
Mon 08:29:00 PM 15.7764 121.9687 36° Northeast  Level Estimated
Mon 08:30:00 PM 15.8783 122.0456 36° Northeast  Level Estimated
Mon 08:31:00 PM 15.9801 122.1225 36° Northeast  Level Estimated
Mon 08:32:00 PM 16.0819 122.1996 36° Northeast  Level Estimated
Mon 08:33:00 PM 16.1836 122.2767 36° Northeast  Level Estimated
Mon 08:34:00 PM 16.2854 122.3539 36° Northeast  Level Estimated
Mon 08:35:00 PM 16.3871 122.4312 36° Northeast  Level Estimated
Mon 08:36:00 PM 16.4888 122.5085 36° Northeast  Level Estimated
Mon 08:37:00 PM 16.5904 122.5860 36° Northeast  Level Estimated
Mon 08:38:00 PM 16.6921 122.6635 36° Northeast  Level Estimated
Mon 08:39:00 PM 16.7936 122.7411 36° Northeast  Level Estimated
Mon 08:40:00 PM 16.8952 122.8188 36° Northeast  Level Estimated
Mon 08:41:00 PM 16.9968 122.8966 36° Northeast  Level Estimated
Mon 08:42:00 PM 17.0983 122.9744 36° Northeast  Level Estimated
Mon 08:43:00 PM 17.1998 123.0524 36° Northeast  Level Estimated
Mon 08:44:00 PM 17.3012 123.1304 36° Northeast  Level Estimated
Mon 08:45:00 PM 17.4026 123.2085 36° Northeast  Level Estimated
Mon 08:46:00 PM 17.5040 123.2867 36° Northeast  Level Estimated
Mon 08:47:00 PM 17.6054 123.3650 36° Northeast  Level Estimated
Mon 08:48:00 PM 17.7067 123.4434 36° Northeast  Level Estimated
Mon 08:49:00 PM 17.8080 123.5218 36° Northeast  Level Estimated
Mon 08:50:00 PM 17.9093 123.6004 36° Northeast  Level Estimated
Mon 08:51:00 PM 18.0114 123.6797 36° Northeast  Level Estimated
Mon 08:52:00 PM 18.1136 123.7592 36° Northeast  Level Estimated
Mon 08:53:00 PM 18.2157 123.8387 37° Northeast  Level Estimated
Mon 08:54:00 PM 18.3177 123.9184 37° Northeast  Level Estimated
Mon 08:55:00 PM 18.4198 123.9981 37° Northeast  Level Estimated
Mon 08:56:00 PM 18.5218 124.0780 37° Northeast  Level Estimated
Mon 08:57:00 PM 18.6238 124.1579 37° Northeast  Level Estimated
Mon 08:58:00 PM 18.7257 124.2379 37° Northeast  Level Estimated
Mon 08:59:00 PM 18.8276 124.3180 37° Northeast  Level Estimated
Mon 09:00:00 PM 18.9295 124.3983 37° Northeast  Level Estimated
Mon 09:01:00 PM 19.0313 124.4786 37° Northeast  Level Estimated
Mon 09:02:00 PM 19.1331 124.5590 37° Northeast  Level Estimated
Mon 09:03:00 PM 19.2349 124.6395 37° Northeast  Level Estimated
Mon 09:04:00 PM 19.3366 124.7202 37° Northeast  Level Estimated
Mon 09:05:00 PM 19.4383 124.8009 37° Northeast  Level Estimated
Mon 09:06:00 PM 19.5400 124.8817 37° Northeast  Level Estimated
Mon 09:07:00 PM 19.6416 124.9626 37° Northeast  Level Estimated
Mon 09:08:00 PM 19.7432 125.0436 37° Northeast  Level Estimated
Mon 09:09:00 PM 19.8447 125.1248 37° Northeast  Level Estimated
Mon 09:10:00 PM 19.9462 125.2060 37° Northeast  Level Estimated
Mon 09:11:00 PM 20.0477 125.2873 37° Northeast  Level Estimated
Mon 09:12:00 PM 20.1492 125.3688 37° Northeast  Level Estimated
Mon 09:13:00 PM 20.2505 125.4503 37° Northeast  Level Estimated
Mon 09:14:00 PM 20.3519 125.5320 37° Northeast  Level Estimated
Mon 09:15:00 PM 20.4532 125.6137 37° Northeast  Level Estimated
Mon 09:16:00 PM 20.5545 125.6956 37° Northeast  Level Estimated
Mon 09:17:00 PM 20.6558 125.7776 37° Northeast  Level Estimated
Mon 09:18:00 PM 20.7570 125.8596 37° Northeast  Level Estimated
Mon 09:19:00 PM 20.8582 125.9418 37° Northeast  Level Estimated
Mon 09:20:00 PM 20.9593 126.0241 37° Northeast  Level Estimated
Mon 09:21:00 PM 21.0604 126.1066 37° Northeast  Level Estimated
Mon 09:22:00 PM 21.1614 126.1891 37° Northeast  Level Estimated
Mon 09:23:00 PM 21.2624 126.2717 37° Northeast  Level Estimated
Mon 09:24:00 PM 21.3634 126.3545 37° Northeast  Level Estimated
Mon 09:25:00 PM 21.4643 126.4374 37° Northeast  Level Estimated
Mon 09:26:00 PM 21.5652 126.5203 37° Northeast  Level Estimated
Mon 09:27:00 PM 21.6661 126.6034 37° Northeast  Level Estimated
Mon 09:28:00 PM 21.7669 126.6867 37° Northeast  Level Estimated
Mon 09:29:00 PM 21.8677 126.7700 37° Northeast  Level Estimated
Mon 09:30:00 PM 21.9684 126.8534 38° Northeast  Level Estimated
Mon 09:31:00 PM 22.0691 126.9370 38° Northeast  Level Estimated
Mon 09:32:00 PM 22.1697 127.0207 38° Northeast  Level Estimated
Mon 09:33:00 PM 22.2703 127.1045 38° Northeast  Level Estimated
Mon 09:34:00 PM 22.3709 127.1885 38° Northeast  Level Estimated
Mon 09:35:00 PM 22.4714 127.2725 38° Northeast  Level Estimated
Mon 09:36:00 PM 22.5718 127.3567 38° Northeast  Level Estimated
Mon 09:37:00 PM 22.6723 127.4410 38° Northeast  Level Estimated
Mon 09:38:00 PM 22.7726 127.5254 38° Northeast  Level Estimated
Mon 09:39:00 PM 22.8730 127.6099 38° Northeast  Level Estimated
Mon 09:40:00 PM 22.9733 127.6946 38° Northeast  Level Estimated
Mon 09:41:00 PM 23.0735 127.7794 38° Northeast  Level Estimated
Mon 09:42:00 PM 23.1737 127.8643 38° Northeast  Level Estimated
Mon 09:43:00 PM 23.2739 127.9493 38° Northeast  Level Estimated
Mon 09:44:00 PM 23.3740 128.0345 38° Northeast  Level Estimated
Mon 09:45:00 PM 23.4740 128.1198 38° Northeast  Level Estimated
Mon 09:46:00 PM 23.5741 128.2052 38° Northeast  Level Estimated
Mon 09:47:00 PM 23.6740 128.2908 38° Northeast  Level Estimated
Mon 09:48:00 PM 23.7740 128.3765 38° Northeast  Level Estimated
Mon 09:49:00 PM 23.8738 128.4623 38° Northeast  Level Estimated
Mon 09:50:00 PM 23.9736 128.5483 38° Northeast  Level Estimated
Mon 09:51:00 PM 24.0734 128.6344 38° Northeast  Level Estimated
Mon 09:52:00 PM 24.1732 128.7206 38° Northeast  Level Estimated
Mon 09:53:00 PM 24.2728 128.8070 38° Northeast  Level Estimated
Mon 09:54:00 PM 24.3725 128.8935 38° Northeast  Level Estimated
Mon 09:55:00 PM 24.4720 128.9801 38° Northeast  Level Estimated
Mon 09:56:00 PM 24.5716 129.0669 38° Northeast  Level Estimated
Mon 09:57:00 PM 24.6711 129.1538 38° Northeast  Level Estimated
Mon 09:58:00 PM 24.7705 129.2408 38° Northeast  Level Estimated
Mon 09:59:00 PM 24.8699 129.3280 39° Northeast  Level Estimated
Mon 10:00:00 PM 24.9692 129.4153 39° Northeast  Level Estimated
Mon 10:01:00 PM 25.0685 129.5028 39° Northeast  Level Estimated
Mon 10:02:00 PM 25.1677 129.5904 39° Northeast  Level Estimated
Mon 10:03:00 PM 25.2669 129.6782 39° Northeast  Level Estimated
Mon 10:04:00 PM 25.3660 129.7661 39° Northeast  Level Estimated
Mon 10:05:00 PM 25.4651 129.8541 39° Northeast  Level Estimated
Mon 10:06:00 PM 25.5641 129.9423 39° Northeast  Level Estimated
Mon 10:07:00 PM 25.6631 130.0306 39° Northeast  Level Estimated
Mon 10:08:00 PM 25.7620 130.1191 39° Northeast  Level Estimated
Mon 10:09:00 PM 25.8609 130.2077 39° Northeast  Level Estimated
Mon 10:10:00 PM 25.9597 130.2965 39° Northeast  Level Estimated
Mon 10:11:00 PM 26.0585 130.3854 39° Northeast  Level Estimated
Mon 10:12:00 PM 26.1572 130.4745 39° Northeast  Level Estimated
Mon 10:13:00 PM 26.2558 130.5637 39° Northeast  Level Estimated
Mon 10:14:00 PM 26.3544 130.6531 39° Northeast  Level Estimated
Mon 10:15:00 PM 26.4529 130.7426 39° Northeast  Level Estimated
Mon 10:16:00 PM 26.5514 130.8323 39° Northeast  Level Estimated
Mon 10:17:00 PM 26.6498 130.9221 39° Northeast  Level Estimated
Mon 10:18:00 PM 26.7482 131.0121 39° Northeast  Level Estimated
Mon 10:19:00 PM 26.8465 131.1022 39° Northeast  Level Estimated
Mon 10:20:00 PM 26.9448 131.1926 39° Northeast  Level Estimated
Mon 10:21:00 PM 27.0429 131.2830 39° Northeast  Level Estimated
Mon 10:22:00 PM 27.1411 131.3736 39° Northeast  Level Estimated
Mon 10:23:00 PM 27.2392 131.4644 39° Northeast  Level Estimated
Mon 10:24:00 PM 27.3372 131.5553 39° Northeast  Level Estimated
Mon 10:25:00 PM 27.4352 131.6465 40° Northeast  Level Estimated
Mon 10:26:00 PM 27.5331 131.7377 40° Northeast  Level Estimated
Mon 10:27:00 PM 27.6309 131.8291 40° Northeast  Level Estimated
Mon 10:28:00 PM 27.7287 131.9207 40° Northeast  Level Estimated
Mon 10:29:00 PM 27.8264 132.0125 40° Northeast  Level Estimated
Mon 10:30:00 PM 27.9240 132.1044 40° Northeast  Level Estimated
Mon 10:31:00 PM 28.0217 132.1965 40° Northeast  Level Estimated
Mon 10:32:00 PM 28.1192 132.2887 40° Northeast  Level Estimated
Mon 10:33:00 PM 28.2167 132.3811 40° Northeast  Level Estimated
Mon 10:34:00 PM 28.3141 132.4737 40° Northeast  Level Estimated
Mon 10:35:00 PM 28.4114 132.5665 40° Northeast  Level Estimated
Mon 10:36:00 PM 28.5087 132.6594 40° Northeast  Level Estimated
Mon 10:37:00 PM 28.6059 132.7525 40° Northeast  Level Estimated
Mon 10:38:00 PM 28.7031 132.8458 40° Northeast  Level Estimated
Mon 10:39:00 PM 28.8002 132.9392 40° Northeast  Level Estimated
Mon 10:40:00 PM 28.8972 133.0329 40° Northeast  Level Estimated
Mon 10:41:00 PM 28.9942 133.1266 40° Northeast  Level Estimated
Mon 10:42:00 PM 29.0911 133.2206 40° Northeast  Level Estimated
Mon 10:43:00 PM 29.1880 133.3148 40° Northeast  Level Estimated
Mon 10:44:00 PM 29.2847 133.4091 40° Northeast  Level Estimated
Mon 10:45:00 PM 29.3814 133.5036 40° Northeast  Level Estimated
Mon 10:46:00 PM 29.4781 133.5983 40° Northeast  Level Estimated
Mon 10:47:00 PM 29.5746 133.6931 40° Northeast  Level Estimated
Mon 10:48:00 PM 29.6711 133.7882 41° Northeast  Level Estimated
Mon 10:49:00 PM 29.7676 133.8834 41° Northeast  Level Estimated
Mon 10:50:00 PM 29.8639 133.9788 41° Northeast  Level Estimated
Mon 10:51:00 PM 29.9602 134.0744 41° Northeast  Level Estimated
Mon 10:52:00 PM 30.0565 134.1702 41° Northeast  Level Estimated
Mon 10:53:00 PM 30.1526 134.2661 41° Northeast  Level Estimated
Mon 10:54:00 PM 30.2487 134.3623 41° Northeast  Level Estimated
Mon 10:55:00 PM 30.3447 134.4586 41° Northeast  Level Estimated
Mon 10:56:00 PM 30.4407 134.5552 41° Northeast  Level Estimated
Mon 10:57:00 PM 30.5366 134.6519 41° Northeast  Level Estimated
Mon 10:58:00 PM 30.6324 134.7488 41° Northeast  Level Estimated
Mon 10:59:00 PM 30.7281 134.8459 41° Northeast  Level Estimated
Mon 11:00:00 PM 30.8238 134.9432 41° Northeast  Level Estimated
Mon 11:01:00 PM 30.9194 135.0407 41° Northeast  Level Estimated
Mon 11:02:00 PM 31.0149 135.1384 41° Northeast  Level Estimated
Mon 11:03:00 PM 31.1103 135.2363 41° Northeast  Level Estimated
Mon 11:04:00 PM 31.2057 135.3343 41° Northeast  Level Estimated
Mon 11:05:00 PM 31.3010 135.4326 41° Northeast  Level Estimated
Mon 11:05:42 PM 31.9150 135.3860 41° Northeast 527 606 37,100  Level FlightAware
Mon 11:06:00 PM 31.3971 135.5320 41° Northeast  Level Estimated
Mon 11:06:27 PM 31.9890 135.4960 52° Northeast 526 605 37,100  Level FlightAware
Mon 11:07:22 PM 32.0690 135.6170 52° Northeast 523 602 37,100  Level FlightAware
Mon 11:08:12 PM 32.1460 135.7330 52° Northeast 522 601 37,100  Level FlightAware
Mon 11:08:57 PM 32.2090 135.8270 52° Northeast 520 598 37,100  Level FlightAware
Mon 11:09:52 PM 32.2930 135.9550 52° Northeast 37,100  Level FlightAware
Mon 11:10:37 PM 32.3530 136.0470 52° Northeast 521 600 37,100  Level FlightAware
Mon 11:11:17 PM 32.4150 136.1410 52° Northeast 524 603 37,100  Level FlightAware
Mon 11:12:02 PM 32.4810 136.2480 54° Northeast 526 605 37,100  Level FlightAware
Mon 11:12:42 PM 32.5330 136.3460 58° Northeast 523 602 37,100  Level FlightAware
Mon 11:13:27 PM 32.5940 136.4610 58° Northeast 525 604 37,100  Level FlightAware
Mon 11:14:07 PM 32.6450 136.5560 57° Northeast 524 603 37,100  Level FlightAware
Mon 11:14:47 PM 32.6940 136.6490 58° Northeast 523 602 37,100  Level FlightAware
Mon 11:15:42 PM 32.7600 136.7760 58° Northeast 522 601 37,100  Level FlightAware
Mon 11:16:52 PM 32.8560 136.9610 58° Northeast 520 598 37,100  Level FlightAware
Mon 11:17:37 PM 32.9080 137.0620 58° Northeast 520 598 37,100  Level FlightAware
Mon 11:18:17 PM 32.9630 137.1690 58° Northeast 515 593 37,100  Level FlightAware
Mon 11:19:02 PM 33.0200 137.2790 58° Northeast 520 598 37,100  Level FlightAware
Mon 11:19:42 PM 33.0680 137.3730 59° Northeast 516 594 37,100  Level FlightAware
Mon 11:20:22 PM 33.1190 137.4720 58° Northeast 517 595 37,100  Level FlightAware
Mon 11:21:07 PM 33.1740 137.5820 59° Northeast 519 597 37,100  Level FlightAware
Mon 11:22:47 PM 33.2990 137.8290 59° Northeast 522 601 37,100  Level FlightAware
Mon 11:23:27 PM 33.3490 137.9290 59° Northeast 523 602 37,100  Level FlightAware
Mon 11:24:07 PM 33.3960 138.0230 59° Northeast 522 601 37,100  Level FlightAware
Mon 11:25:02 PM 33.4410 138.1090 58° Northeast 525 604 37,100  Level FlightAware
Mon 11:25:47 PM 33.5280 138.2650 56° Northeast 517 595 37,100  Level FlightAware
Mon 11:26:27 PM 33.5840 138.3620 55° Northeast 517 595 37,100  Level FlightAware
Mon 11:27:02 PM 33.6380 138.4550 55° Northeast 517 595 37,100  Level FlightAware
Mon 11:27:47 PM 33.6960 138.5550 55° Northeast 518 596 37,100  Level FlightAware
Mon 11:28:27 PM 33.7530 138.6550 56° Northeast 520 598 37,100  Level FlightAware
Mon 11:29:17 PM 33.8210 138.7730 55° Northeast 520 598 37,100  Level FlightAware
Mon 11:29:57 PM 33.8770 138.8710 55° Northeast 519 597 37,100  Level FlightAware
Mon 11:30:42 PM 33.9390 138.9800 56° Northeast 520 598 37,100  Level FlightAware
Mon 11:31:22 PM 33.9920 139.0740 56° Northeast 525 604 37,100  Level FlightAware
Mon 11:32:02 PM 34.0440 139.1660 56° Northeast 526 605 37,100  Level FlightAware
Mon 11:32:47 PM 34.1100 139.2850 56° Northeast 525 604 37,100  Level FlightAware
Mon 11:33:42 PM 34.1810 139.4120 56° Northeast 525 604 37,100  Level FlightAware
Mon 11:34:22 PM 34.2370 139.5130 56° Northeast 524 603 37,100  Level FlightAware
Mon 11:35:07 PM 34.2990 139.6240 56° Northeast 522 601 37,100  Level FlightAware
Mon 11:35:47 PM 34.3530 139.7220 56° Northeast 520 598 37,100  Level FlightAware
Mon 11:36:32 PM 34.4110 139.8280 56° Northeast 513 590 37,100 -494 Level FlightAware
Mon 11:37:12 PM 34.4670 139.9300 56° Northeast 520 598 36,400 -1,467 Descending FlightAware
Mon 11:38:02 PM 34.5330 140.0510 56° Northeast 534 615 34,900 -1,800 Descending FlightAware
Mon 11:38:52 PM 34.5910 140.1580 57° Northeast 547 629 33,400 -1,867 Descending FlightAware
Mon 11:39:32 PM 34.6510 140.2680 56° Northeast 558 642 32,100 -900 Descending FlightAware
Mon 11:40:12 PM 34.7120 140.3810 57° Northeast 534 615 32,200 -1,125 Climbing FlightAware
Mon 11:40:52 PM 34.7670 140.4830 57° Northeast 525 604 30,600 -2,612 Descending FlightAware
Mon 11:41:37 PM 34.8250 140.5900 57° Northeast 524 603 28,500 -3,508 Descending FlightAware
Mon 11:43:02 PM 34.9800 140.7230 35° Northeast 457 526 23,000 -3,476 Descending FlightAware
Mon 11:44:02 PM 35.0950 140.7390 North 437 503 20,100 -3,360 Descending FlightAware
Mon 11:44:42 PM 35.1810 140.7500 North 417 480 17,400 -3,825 Descending FlightAware
Mon 11:45:22 PM 35.2620 140.7600 North 408 470 15,000 -3,318 Descending FlightAware
Mon 11:46:07 PM 35.3400 140.7640 North 387 445 12,700 -3,318 Descending FlightAware
Mon 11:46:47 PM 35.4170 140.7600 358° North 373 429 10,300 -2,118 Descending FlightAware
Mon 11:47:32 PM 35.4860 140.7560 357° North 320 368 9,700 -514 Descending FlightAware
Mon 11:47:57 PM 35.5210 140.7540 357° North 276 318 9,700 -436 Level FlightAware
Mon 11:48:27 PM 35.5620 140.7520 358° North 259 298 9,300 -1,091 Descending FlightAware
Mon 11:48:52 PM 35.5900 140.7510 358° North 271 312 8,700 -1,440 Descending FlightAware
Mon 11:49:17 PM 35.6190 140.7480 355° North 265 305 8,100 -1,333 Descending FlightAware
Mon 11:49:37 PM 35.6440 140.7300 330° Northwest 255 293 7,700 -1,440 Descending FlightAware
Mon 11:50:07 PM 35.6730 140.7060 326° Northwest 253 291 6,900 -1,527 Descending FlightAware
Mon 11:50:32 PM 35.6920 140.6910 327° Northwest 253 291 6,300 -1,309 Descending FlightAware
Mon 11:51:02 PM 35.7270 140.6610 325° Northwest 255 293 5,700 -655 Descending FlightAware
Mon 11:51:27 PM 35.7490 140.6430 326° Northwest 260 299 5,700  Level FlightAware
Mon 11:51:37 PM 35.7590 140.6340 324° Northwest 260 299 5,700  Level FlightAware
Mon 11:52:07 PM 35.7870 140.6120 327° Northwest 249 287 5,700 -800 Level FlightAware
Mon 11:52:37 PM 35.8170 140.5880 327° Northwest 246 283 4,900 -1,280 Descending FlightAware
Mon 11:53:22 PM 35.8600 140.5540 327° Northwest 243 280 4,100 -847 Descending FlightAware
Mon 11:54:02 PM 35.8980 140.5230 327° Northwest 216 249 3,700 -600 Descending FlightAware
Mon 11:54:32 PM 35.9160 140.4960 309° West 197 227 3,400 -655 Descending FlightAware
Mon 11:54:57 PM 35.9290 140.4760 309° West 185 213 3,100 -750 Descending FlightAware
Mon 11:55:12 PM 35.9350 140.4620 298° West 180 207 2,900 -533 Descending FlightAware
Mon 11:55:42 PM 35.9430 140.4330 289° West 166 191 2,700 -109 Descending FlightAware
Mon 11:56:07 PM 35.9480 140.4120 286° West 168 193 2,800 109 Climbing FlightAware
Mon 11:56:37 PM 35.9540 140.3840 285° West 158 182 2,800 -109 Level FlightAware
Mon 11:57:02 PM 35.9510 140.3630 260° West 161 185 2,700 -257 Descending FlightAware
Mon 11:57:47 PM 35.9340 140.3250 241° Southwest 149 171 2,500 -86 Descending FlightAware
Mon 11:58:12 PM 35.9210 140.3110 221° Southwest 161 185 2,600  Climbing FlightAware
Mon 11:58:47 PM 35.8940 140.3110 180° South 147 169 2,500  Descending FlightAware
Mon 11:59:27 PM 35.8680 140.3210 163° South 157 181 2,600 -92 Climbing FlightAware
Mon 11:59:52 PM 35.8550 140.3300 151° Southeast 159 183 2,400 -800 Descending FlightAware
Tue 12:00:42 AM 35.8210 140.3560 148° Southeast 157 181 1,600 -900 Descending FlightAware
Tue 12:01:12 AM 35.8030 140.3700 148° Southeast 157 181 1,200 -867 Descending FlightAware
Tue 12:02:12 AM 35.7660 140.3960 150° Southeast 150 173 300 -635 Descending FlightAware
Tue 12:02:37 AM 35.7530 140.4060 148° Southeast 150 173 300  Level FlightAware

Login

Don't have an account? Register now (free) for customized features, flight alerts, and more!